Time;durP1;ratioP1;P1;durP2;ratioP2;P2;SDS_P1;SDS_P2;PMS_P1;PMS_P2;Temp;Humidity;BMP_temperature;BMP_pressure;BME280_temperature;BME280_humidity;BME280_pressure;Samples;Min_cycle;Max_cycle;Signal;HPM_P1;HPM_P2
2022/12/18 00:01:28;;;;;;;130.57;54.00;;;-3.70;97.50;;;;;;5083925;28;20896;-70
2022/12/18 00:03:57;;;;;;;114.63;51.43;;;-3.70;97.30;;;;;;5071881;28;20232;-71
2022/12/18 00:06:29;;;;;;;136.77;54.17;;;-3.80;96.50;;;;;;5082339;28;20204;-71
2022/12/18 00:08:58;;;;;;;127.97;56.03;;;-3.80;96.80;;;;;;5091000;28;20701;-71
2022/12/18 00:11:30;;;;;;;131.23;55.57;;;-3.90;97.10;;;;;;5091160;28;20860;-72
2022/12/18 00:14:00;;;;;;;111.20;50.00;;;-3.90;97.80;;;;;;5091045;28;20831;-71
2022/12/18 00:16:32;;;;;;;95.97;43.53;;;-3.90;99.00;;;;;;5091359;28;20223;-71
2022/12/18 00:19:01;;;;;;;119.03;49.53;;;-3.90;99.40;;;;;;5090350;28;20214;-72
2022/12/18 00:21:32;;;;;;;122.97;49.60;;;-3.80;99.20;;;;;;5091529;28;20193;-72
2022/12/18 00:24:01;;;;;;;105.00;47.37;;;-3.80;98.90;;;;;;5091453;28;20558;-72
2022/12/18 00:26:33;;;;;;;113.27;49.90;;;-3.80;98.20;;;;;;5091213;28;20576;-72
2022/12/18 00:29:05;;;;;;;101.10;44.87;;;-3.80;97.70;;;;;;5095472;28;20628;-71
2022/12/18 00:31:34;;;;;;;103.60;42.97;;;-3.70;97.30;;;;;;5094048;28;20212;-71
2022/12/18 00:34:03;;;;;;;99.07;44.23;;;-3.70;97.70;;;;;;5094076;28;20246;-73
2022/12/18 00:36:34;;;;;;;100.80;43.33;;;-3.70;98.10;;;;;;5095316;28;20284;-72
2022/12/18 00:39:04;;;;;;;98.17;44.63;;;-3.70;97.60;;;;;;5095195;28;20234;-72
2022/12/18 00:44:21;;;;;;;94.73;42.70;;;-3.70;97.80;;;;;;5094929;28;20308;-72
2022/12/18 00:46:50;;;;;;;90.83;42.77;;;-3.70;97.70;;;;;;5093944;28;20201;-72
2022/12/18 00:49:19;;;;;;;108.73;46.37;;;-3.80;97.70;;;;;;5094956;28;20190;-72
2022/12/18 00:51:48;;;;;;;88.17;41.37;;;-4.00;97.40;;;;;;5094767;28;20200;-72
2022/12/18 00:54:17;;;;;;;92.17;41.43;;;-4.10;99.50;;;;;;5076761;28;20201;-72
2022/12/18 00:56:47;;;;;;;89.10;40.07;;;-4.00;99.90;;;;;;5078114;28;20287;-72
2022/12/18 00:59:18;;;;;;;87.63;40.50;;;-3.90;99.40;;;;;;5089336;28;20297;-72
2022/12/18 01:01:47;;;;;;;88.87;38.93;;;-3.80;98.60;;;;;;5086440;28;20259;-72
2022/12/18 01:04:15;;;;;;;94.93;40.20;;;-3.80;98.50;;;;;;5087747;28;20229;-71
2022/12/18 01:06:46;;;;;;;94.97;39.90;;;-3.90;98.80;;;;;;5093260;28;20292;-72
2022/12/18 01:09:14;;;;;;;88.73;37.60;;;-3.90;99.10;;;;;;5090707;28;20193;-71
2022/12/18 01:11:43;;;;;;;91.67;38.37;;;-3.80;99.90;;;;;;5074163;28;20197;-72
2022/12/18 01:14:13;;;;;;;84.17;35.70;;;-3.80;99.80;;;;;;5074268;28;20193;-71
2022/12/18 01:16:41;;;;;;;78.80;36.67;;;-3.80;99.70;;;;;;5091530;28;20228;-71
2022/12/18 01:19:10;;;;;;;88.33;40.33;;;-3.80;99.20;;;;;;5094316;28;20601;-71
2022/12/18 01:21:39;;;;;;;102.43;44.33;;;-4.00;98.60;;;;;;5086752;28;20193;-72
2022/12/18 01:24:08;;;;;;;96.70;43.03;;;-4.10;99.20;;;;;;5072595;28;20252;-72
2022/12/18 01:26:36;;;;;;;98.57;42.77;;;-4.00;99.70;;;;;;5072620;28;20231;-72
2022/12/18 01:29:05;;;;;;;95.87;42.63;;;-3.90;99.70;;;;;;5072808;28;20262;-71
2022/12/18 01:31:35;;;;;;;94.27;44.07;;;-3.90;98.40;;;;;;5073961;28;20200;-72
2022/12/18 01:34:04;;;;;;;82.30;36.10;;;-4.00;99.30;;;;;;5073934;28;20729;-71
2022/12/18 01:36:37;;;;;;;81.10;37.17;;;-3.90;99.00;;;;;;5086094;28;20271;-72
2022/12/18 01:39:11;;;;;;;80.70;35.23;;;-3.90;99.50;;;;;;5092093;28;20596;-72
2022/12/18 01:45:00;;;;;;;73.80;35.03;;;-3.90;98.10;;;;;;5093731;28;20271;-71
2022/12/18 01:47:34;;;;;;;81.90;34.63;;;-3.90;97.90;;;;;;5031229;28;20331;-72
2022/12/18 01:50:07;;;;;;;69.83;33.70;;;-3.90;98.80;;;;;;5031535;28;20291;-72
2022/12/18 01:52:36;;;;;;;78.70;34.37;;;-3.90;98.90;;;;;;5031362;28;20311;-72
2022/12/18 01:55:08;;;;;;;78.77;34.40;;;-3.90;98.90;;;;;;5031183;28;20202;-71
2022/12/18 01:57:37;;;;;;;71.87;34.37;;;-3.90;98.40;;;;;;5031191;28;20207;-72
2022/12/18 02:00:09;;;;;;;75.43;34.40;;;-3.90;98.70;;;;;;5014639;28;20203;-71
2022/12/18 02:02:45;;;;;;;61.60;29.73;;;-4.00;98.60;;;;;;5031180;28;20697;-71
2022/12/18 02:05:16;;;;;;;66.30;31.17;;;-4.10;99.70;;;;;;5014374;28;20694;-72
2022/12/18 02:07:57;;;;;;;70.47;31.03;;;-4.10;99.90;;;;;;5014164;28;20567;-71
2022/12/18 02:10:30;;;;;;;65.93;27.47;;;-4.00;99.90;;;;;;5030722;28;20202;-71
2022/12/18 02:13:11;;;;;;;55.43;25.60;;;-4.00;99.90;;;;;;5014470;28;20210;-71
2022/12/18 02:15:46;;;;;;;64.63;27.43;;;-4.00;99.90;;;;;;5014365;28;20556;-71
2022/12/18 02:18:20;;;;;;;60.67;26.70;;;-3.90;99.80;;;;;;5014366;28;20297;-72
2022/12/18 02:20:55;;;;;;;51.50;24.67;;;-3.90;98.80;;;;;;5014233;28;20213;-71
2022/12/18 02:23:41;;;;;;;51.73;25.47;;;-3.90;99.20;;;;;;5031916;28;20212;-71
2022/12/18 02:26:20;;;;;;;56.83;26.00;;;-3.90;98.80;;;;;;5085567;28;20208;-71
2022/12/18 02:28:55;;;;;;;55.10;24.30;;;-3.80;98.30;;;;;;5091057;28;20197;-71
2022/12/18 02:31:28;;;;;;;62.20;25.63;;;-3.90;99.10;;;;;;5082587;28;20207;-71
2022/12/18 02:34:00;;;;;;;59.60;23.83;;;-4.00;98.50;;;;;;5072685;28;20240;-71
2022/12/18 02:36:34;;;;;;;67.00;28.37;;;-4.00;99.90;;;;;;5071471;28;20204;-72
2022/12/18 02:39:05;;;;;;;61.47;27.90;;;-3.90;99.90;;;;;;5084188;28;20303;-71
2022/12/18 02:41:36;;;;;;;54.93;24.77;;;-3.90;99.90;;;;;;5092272;28;20298;-70
2022/12/18 02:44:10;;;;;;;57.13;25.87;;;-3.90;99.90;;;;;;5091515;28;20220;-70
2022/12/18 02:46:43;;;;;;;48.07;23.40;;;-3.80;99.60;;;;;;5091316;28;20205;-71
2022/12/18 02:49:27;;;;;;;60.77;28.37;;;-3.80;99.80;;;;;;5090968;28;20608;-70
2022/12/18 02:52:06;;;;;;;48.47;23.50;;;-3.80;99.90;;;;;;5083168;28;20295;-70
2022/12/18 02:54:52;;;;;;;49.30;22.73;;;-3.80;99.80;;;;;;5088390;28;20215;-71
2022/12/18 02:57:30;;;;;;;53.30;22.97;;;-3.80;99.70;;;;;;5070824;28;20219;-71
2022/12/18 03:00:04;;;;;;;45.40;21.03;;;-3.80;98.70;;;;;;5087478;28;20739;-71
2022/12/18 03:02:38;;;;;;;45.30;22.50;;;-3.80;99.30;;;;;;5091127;28;20246;-72
2022/12/18 03:05:14;;;;;;;50.03;23.93;;;-3.80;99.50;;;;;;5090849;28;20315;-72
2022/12/18 03:07:48;;;;;;;47.33;23.77;;;-3.90;99.90;;;;;;5070804;28;20196;-72
2022/12/18 03:10:25;;;;;;;52.13;22.63;;;-3.80;99.90;;;;;;5070428;28;20193;-71
2022/12/18 03:13:01;;;;;;;55.10;29.63;;;-3.80;99.70;;;;;;5071940;28;20789;-70
2022/12/18 03:15:35;;;;;;;65.50;30.80;;;-3.80;99.40;;;;;;5070690;28;20240;-71
2022/12/18 03:18:14;;;;;;;52.03;22.63;;;-3.90;99.90;;;;;;5070673;28;20579;-71
2022/12/18 03:20:45;;;;;;;48.23;21.47;;;-3.90;99.90;;;;;;5070474;28;20204;-72
2022/12/18 03:23:19;;;;;;;41.00;22.83;;;-3.80;99.90;;;;;;5070575;28;20204;-71
2022/12/18 03:25:55;;;;;;;46.97;22.17;;;-3.80;99.90;;;;;;5070316;28;20224;-72
2022/12/18 03:28:31;;;;;;;51.43;20.83;;;-3.80;99.90;;;;;;5070562;28;20202;-71
2022/12/18 03:31:07;;;;;;;46.13;22.43;;;-3.80;99.90;;;;;;5070652;28;20225;-72
2022/12/18 03:33:39;;;;;;;45.87;21.00;;;-3.80;99.90;;;;;;5071826;28;20195;-72
2022/12/18 03:36:09;;;;;;;46.73;22.13;;;-3.70;99.90;;;;;;5071842;28;20212;-72
2022/12/18 03:38:39;;;;;;;41.60;20.13;;;-3.70;99.90;;;;;;5070453;28;20202;-72
2022/12/18 03:41:17;;;;;;;43.63;20.33;;;-3.70;99.90;;;;;;5069965;28;20713;-72
2022/12/18 03:44:14;;;;;;;40.00;18.90;;;-3.70;99.90;;;;;;5071529;28;20243;-71
2022/12/18 03:46:54;;;;;;;46.97;21.23;;;-3.70;99.90;;;;;;5070324;28;20751;-72
2022/12/18 03:49:29;;;;;;;43.23;19.80;;;-3.70;99.90;;;;;;5070286;28;20292;-72
2022/12/18 03:52:04;;;;;;;46.23;20.83;;;-3.70;99.90;;;;;;5069941;28;20657;-72
2022/12/18 03:54:35;;;;;;;41.00;20.90;;;-3.70;99.90;;;;;;5070347;28;20204;-71
2022/12/18 03:57:15;;;;;;;42.20;19.07;;;-3.70;99.90;;;;;;5070221;28;20201;-71
2022/12/18 03:59:48;;;;;;;36.27;19.23;;;-3.70;99.90;;;;;;5070127;28;20208;-71
2022/12/18 04:02:19;;;;;;;39.27;18.43;;;-3.70;99.90;;;;;;5071786;28;20213;-71
2022/12/18 04:04:51;;;;;;;39.43;18.63;;;-3.70;99.90;;;;;;5074018;28;20698;-72
2022/12/18 04:07:21;;;;;;;42.47;19.37;;;-3.70;99.90;;;;;;5074301;28;20212;-72
2022/12/18 04:09:52;;;;;;;49.93;21.67;;;-3.70;99.90;;;;;;5074086;28;20672;-72
2022/12/18 04:12:26;;;;;;;34.13;17.50;;;-3.80;99.90;;;;;;5092125;28;20291;-71
2022/12/18 04:14:56;;;;;;;40.73;19.33;;;-3.70;99.90;;;;;;5095338;28;20208;-71
2022/12/18 04:17:25;;;;;;;33.90;17.87;;;-3.70;99.90;;;;;;5095133;28;20640;-71
2022/12/18 04:19:53;;;;;;;39.07;17.37;;;-3.70;99.90;;;;;;5094185;28;20292;-72
2022/12/18 04:22:24;;;;;;;43.13;17.43;;;-3.60;99.90;;;;;;5094172;28;20202;-72
2022/12/18 04:24:58;;;;;;;36.17;17.80;;;-3.60;99.90;;;;;;5111280;28;20231;-72
2022/12/18 04:27:34;;;;;;;32.07;17.13;;;-3.70;99.90;;;;;;5114435;28;20205;-72
2022/12/18 04:30:05;;;;;;;41.23;17.73;;;-3.60;99.90;;;;;;5114541;28;20575;-71
2022/12/18 04:32:35;;;;;;;34.50;16.43;;;-3.60;99.90;;;;;;5114157;28;20200;-72
2022/12/18 04:35:06;;;;;;;37.97;17.63;;;-3.60;99.70;;;;;;5106730;28;20225;-71
2022/12/18 04:37:35;;;;;;;34.07;17.07;;;-3.70;99.90;;;;;;5095238;28;20224;-72
2022/12/18 04:40:05;;;;;;;35.67;17.80;;;-3.70;99.90;;;;;;5093706;28;20228;-71
2022/12/18 04:42:40;;;;;;;36.93;18.50;;;-3.70;99.90;;;;;;5093624;28;20268;-72
2022/12/18 04:45:11;;;;;;;42.90;19.30;;;-3.80;99.90;;;;;;5101558;28;20223;-72
2022/12/18 04:47:39;;;;;;;37.67;17.77;;;-3.70;99.90;;;;;;5115428;28;20188;-71
2022/12/18 04:50:08;;;;;;;36.53;17.47;;;-3.60;99.90;;;;;;5096461;28;20216;-72
2022/12/18 04:52:37;;;;;;;36.97;17.50;;;-3.70;99.90;;;;;;5095018;28;20377;-71
2022/12/18 04:55:06;;;;;;;37.07;18.43;;;-3.70;99.90;;;;;;5109541;28;20192;-71
2022/12/18 04:57:35;;;;;;;34.77;17.23;;;-3.60;99.90;;;;;;5094495;28;20310;-72
2022/12/18 05:00:05;;;;;;;33.43;16.57;;;-3.70;99.90;;;;;;5094980;28;20232;-70
2022/12/18 05:02:35;;;;;;;31.97;14.97;;;-3.70;99.90;;;;;;5094844;28;20217;-72
2022/12/18 05:05:05;;;;;;;30.20;15.83;;;-3.70;99.90;;;;;;5094623;28;20296;-72
2022/12/18 05:07:33;;;;;;;35.00;15.33;;;-3.70;99.90;;;;;;5094772;28;20206;-72
2022/12/18 05:10:02;;;;;;;49.33;24.37;;;-3.70;99.90;;;;;;5094442;28;20192;-72
2022/12/18 05:12:32;;;;;;;28.13;15.07;;;-3.70;99.90;;;;;;5092254;28;20206;-72
2022/12/18 05:15:03;;;;;;;27.80;14.87;;;-3.70;99.90;;;;;;5084475;28;20201;-71
2022/12/18 05:17:31;;;;;;;24.13;14.60;;;-3.70;99.90;;;;;;5102925;28;20192;-71
2022/12/18 05:20:01;;;;;;;28.77;14.80;;;-3.70;99.90;;;;;;5113825;28;20209;-71
2022/12/18 05:22:30;;;;;;;31.27;14.70;;;-3.70;99.90;;;;;;5113847;28;20195;-72
2022/12/18 05:24:58;;;;;;;31.43;15.13;;;-3.70;99.90;;;;;;5113813;28;20194;-71
2022/12/18 05:27:27;;;;;;;28.77;15.23;;;-3.60;99.90;;;;;;5113776;28;20188;-69
2022/12/18 05:29:55;;;;;;;28.30;15.43;;;-3.60;99.90;;;;;;5114433;28;20482;-72
2022/12/18 05:32:23;;;;;;;33.07;16.07;;;-3.70;99.90;;;;;;5114469;28;20192;-72
2022/12/18 05:34:52;;;;;;;28.87;15.97;;;-3.70;99.90;;;;;;5114342;28;20286;-72
2022/12/18 05:37:22;;;;;;;30.50;15.20;;;-3.70;99.90;;;;;;5114363;28;20199;-72
2022/12/18 05:39:50;;;;;;;28.50;14.37;;;-3.60;99.90;;;;;;5113967;28;20195;-71
2022/12/18 05:42:19;;;;;;;24.83;14.67;;;-3.50;99.90;;;;;;5114245;28;20192;-72
2022/12/18 05:44:47;;;;;;;26.73;14.47;;;-3.50;99.90;;;;;;5114221;28;20294;-72
2022/12/18 05:47:19;;;;;;;26.27;13.07;;;-3.50;99.90;;;;;;5114359;28;20227;-71
2022/12/18 05:49:47;;;;;;;20.93;12.77;;;-3.60;99.90;;;;;;5114212;28;20556;-72
2022/12/18 05:52:15;;;;;;;30.57;14.97;;;-3.50;99.90;;;;;;5114405;28;20576;-72
2022/12/18 05:54:45;;;;;;;25.97;14.37;;;-3.50;99.90;;;;;;5114304;28;20206;-72
2022/12/18 05:57:14;;;;;;;29.37;14.93;;;-3.40;99.90;;;;;;5114102;28;20203;-72
2022/12/18 05:59:42;;;;;;;33.33;15.10;;;-3.40;99.90;;;;;;5113884;28;20206;-72
2022/12/18 06:02:11;;;;;;;28.83;14.17;;;-3.30;99.90;;;;;;5114394;28;20206;-71
2022/12/18 06:04:40;;;;;;;27.27;14.23;;;-3.30;99.90;;;;;;5113840;28;20209;-72
2022/12/18 06:07:08;;;;;;;30.83;15.17;;;-3.30;99.90;;;;;;5113842;28;20216;-72
2022/12/18 06:09:37;;;;;;;28.10;14.40;;;-3.30;99.90;;;;;;5113848;28;20196;-72
2022/12/18 06:12:07;;;;;;;28.83;14.30;;;-3.30;99.90;;;;;;5113725;28;20194;-72
2022/12/18 06:14:36;;;;;;;23.80;13.37;;;-3.30;99.90;;;;;;5112492;28;20208;-71
2022/12/18 06:17:04;;;;;;;28.07;14.03;;;-3.30;99.90;;;;;;5113620;28;20675;-71
2022/12/18 06:19:33;;;;;;;27.67;15.20;;;-3.50;99.90;;;;;;5113496;28;20200;-71
2022/12/18 06:22:02;;;;;;;28.97;14.97;;;-3.50;99.90;;;;;;5113543;28;20723;-71
2022/12/18 06:24:31;;;;;;;29.70;15.97;;;-3.50;99.90;;;;;;5112615;28;20220;-72
2022/12/18 06:26:59;;;;;;;36.43;17.10;;;-3.50;99.90;;;;;;5113430;28;20232;-71
2022/12/18 06:29:29;;;;;;;32.13;17.60;;;-3.50;99.90;;;;;;5113445;27;20196;-71
2022/12/18 06:31:57;;;;;;;27.83;16.80;;;-3.40;99.90;;;;;;5113279;28;20543;-72
2022/12/18 06:34:26;;;;;;;30.33;14.93;;;-3.40;99.90;;;;;;5113440;28;20200;-71
2022/12/18 06:36:55;;;;;;;32.77;17.10;;;-3.30;99.90;;;;;;5113126;28;20193;-72
2022/12/18 06:39:23;;;;;;;34.30;17.27;;;-3.30;99.90;;;;;;5113273;28;20225;-72
2022/12/18 06:41:52;;;;;;;26.17;15.43;;;-3.40;99.90;;;;;;5112766;28;20234;-72
2022/12/18 06:44:20;;;;;;;29.50;17.13;;;-3.40;99.90;;;;;;5113031;28;20184;-71
2022/12/18 06:46:50;;;;;;;25.57;14.93;;;-3.40;99.90;;;;;;5113083;28;20223;-71
2022/12/18 06:49:19;;;;;;;30.80;16.53;;;-3.40;99.90;;;;;;5112997;28;20183;-71
2022/12/18 06:51:48;;;;;;;29.17;15.23;;;-3.40;99.90;;;;;;5112863;27;20184;-70
2022/12/18 06:54:17;;;;;;;30.03;16.73;;;-3.40;99.90;;;;;;5112876;28;20222;-72
2022/12/18 06:56:46;;;;;;;40.83;17.07;;;-3.40;99.90;;;;;;5112725;28;20579;-72
2022/12/18 06:59:15;;;;;;;26.10;14.90;;;-3.40;99.90;;;;;;5112756;28;20203;-71
2022/12/18 07:01:44;;;;;;;26.00;15.10;;;-3.50;99.90;;;;;;5112882;28;20266;-71
2022/12/18 07:04:14;;;;;;;34.40;16.20;;;-3.50;99.90;;;;;;5112650;28;20234;-71
2022/12/18 07:06:42;;;;;;;31.30;15.63;;;-3.60;99.90;;;;;;5112677;28;20583;-71
2022/12/18 07:09:11;;;;;;;28.00;16.23;;;-3.50;99.90;;;;;;5112618;28;20637;-71
2022/12/18 07:11:39;;;;;;;25.43;14.73;;;-3.40;99.90;;;;;;5112268;28;20192;-71
2022/12/18 07:14:08;;;;;;;27.30;15.93;;;-3.50;99.90;;;;;;5112880;28;20189;-71
2022/12/18 07:16:36;;;;;;;26.23;14.70;;;-3.50;99.90;;;;;;5111385;28;20204;-71
2022/12/18 07:19:05;;;;;;;28.53;16.17;;;-3.50;99.90;;;;;;5112805;28;20243;-71
2022/12/18 07:21:35;;;;;;;29.60;16.57;;;-3.40;99.90;;;;;;5112420;28;20187;-70
2022/12/18 07:24:04;;;;;;;27.27;16.97;;;-3.40;99.90;;;;;;5112412;28;20224;-71
2022/12/18 07:26:33;;;;;;;30.67;16.47;;;-3.40;99.90;;;;;;5112118;28;20216;-71
2022/12/18 07:29:01;;;;;;;32.93;18.60;;;-3.40;99.90;;;;;;5112456;28;20216;-71
2022/12/18 07:31:32;;;;;;;34.43;19.67;;;-3.50;99.90;;;;;;5112533;28;20221;-71
2022/12/18 07:34:01;;;;;;;27.67;15.63;;;-3.40;99.90;;;;;;5112267;28;20299;-71
2022/12/18 07:36:29;;;;;;;31.97;16.43;;;-3.50;99.90;;;;;;5112125;28;20196;-71
2022/12/18 07:38:59;;;;;;;36.33;17.93;;;-3.40;99.90;;;;;;5112210;28;20198;-72
2022/12/18 07:41:28;;;;;;;23.60;14.10;;;-3.50;99.90;;;;;;5112029;28;20221;-72
2022/12/18 07:43:56;;;;;;;26.17;14.23;;;-3.40;99.90;;;;;;5112262;28;20634;-72
2022/12/18 07:46:25;;;;;;;32.43;17.23;;;-3.30;99.90;;;;;;5112039;28;20210;-72
2022/12/18 07:48:54;;;;;;;33.13;17.00;;;-3.20;99.90;;;;;;5112121;28;20188;-71
2022/12/18 07:51:22;;;;;;;30.40;16.83;;;-3.20;99.90;;;;;;5112033;28;20204;-72
2022/12/18 07:53:51;;;;;;;29.57;16.37;;;-3.20;99.90;;;;;;5112037;28;20690;-71
2022/12/18 07:56:21;;;;;;;36.73;18.30;;;-3.20;99.90;;;;;;5112202;28;20203;-71
2022/12/18 07:58:55;;;;;;;27.03;16.07;;;-3.10;99.90;;;;;;5112092;28;20220;-71
2022/12/18 08:01:24;;;;;;;31.07;16.13;;;-3.10;99.90;;;;;;5112105;28;20193;-71
2022/12/18 08:03:53;;;;;;;29.23;16.17;;;-3.00;99.90;;;;;;5111902;28;20206;-71
2022/12/18 08:06:21;;;;;;;29.87;15.43;;;-3.00;99.90;;;;;;5111903;28;20201;-71
2022/12/18 08:08:52;;;;;;;24.53;13.50;;;-3.00;99.90;;;;;;5112121;28;20206;-71
2022/12/18 08:11:24;;;;;;;27.37;13.00;;;-2.90;99.90;;;;;;5111977;28;20685;-71
2022/12/18 08:13:53;;;;;;;23.23;13.63;;;-2.80;99.90;;;;;;5111606;28;20635;-71
2022/12/18 08:16:22;;;;;;;25.23;14.33;;;-2.80;99.90;;;;;;5111850;28;20200;-71
2022/12/18 08:18:52;;;;;;;28.23;13.43;;;-2.80;99.90;;;;;;5111754;28;20214;-72
2022/12/18 08:21:23;;;;;;;28.20;14.33;;;-2.70;99.90;;;;;;5111770;28;20193;-71
2022/12/18 08:23:53;;;;;;;28.73;14.50;;;-2.70;99.90;;;;;;5111903;28;20200;-71
2022/12/18 08:26:24;;;;;;;32.20;15.80;;;-2.70;99.90;;;;;;5111516;28;20273;-71
2022/12/18 08:28:54;;;;;;;31.30;15.93;;;-2.70;99.90;;;;;;5111632;28;20270;-71
2022/12/18 08:31:24;;;;;;;28.67;15.27;;;-2.60;99.90;;;;;;5111695;28;20286;-70
2022/12/18 08:33:53;;;;;;;26.30;13.97;;;-2.60;99.90;;;;;;5111705;28;20595;-71
2022/12/18 08:36:23;;;;;;;24.13;15.17;;;-2.60;99.90;;;;;;5111629;28;20195;-71
2022/12/18 08:38:51;;;;;;;24.83;14.07;;;-2.50;99.90;;;;;;5111604;28;20192;-71
2022/12/18 08:41:21;;;;;;;28.90;15.80;;;-2.50;99.90;;;;;;5111315;28;20326;-71
2022/12/18 08:46:39;;;;;;;23.03;14.30;;;-2.40;99.90;;;;;;5111568;28;20234;-71
2022/12/18 08:49:09;;;;;;;24.57;13.53;;;-2.30;99.90;;;;;;5114253;28;20680;-71
2022/12/18 08:51:37;;;;;;;19.77;13.00;;;-2.30;99.90;;;;;;5115180;28;20572;-73
2022/12/18 08:54:06;;;;;;;25.10;13.57;;;-2.20;99.90;;;;;;5115216;28;20209;-73
2022/12/18 08:56:35;;;;;;;21.67;12.93;;;-2.20;99.90;;;;;;5115183;28;20194;-73
2022/12/18 08:59:05;;;;;;;19.33;13.17;;;-2.20;99.90;;;;;;5114913;28;20563;-73
2022/12/18 09:01:34;;;;;;;21.87;14.17;;;-2.20;99.90;;;;;;5115033;28;20735;-73
2022/12/18 09:04:03;;;;;;;24.47;12.57;;;-2.20;99.90;;;;;;5114989;28;20219;-73
2022/12/18 09:06:32;;;;;;;20.13;13.27;;;-2.10;99.90;;;;;;5113594;28;20200;-73
2022/12/18 09:09:00;;;;;;;21.70;13.37;;;-2.00;99.90;;;;;;5114815;28;20231;-74
2022/12/18 09:11:32;;;;;;;19.17;11.50;;;-2.00;99.90;;;;;;5113726;28;20203;-73
2022/12/18 09:14:02;;;;;;;20.53;12.27;;;-1.90;99.90;;;;;;5114868;28;20242;-73
2022/12/18 09:16:34;;;;;;;23.13;13.03;;;-1.80;99.90;;;;;;5114833;28;20204;-73
2022/12/18 09:19:05;;;;;;;18.73;12.30;;;-1.80;99.90;;;;;;5114733;28;20212;-73
2022/12/18 09:21:38;;;;;;;21.13;12.90;;;-1.80;99.90;;;;;;5114680;28;20283;-73
2022/12/18 09:24:14;;;;;;;22.17;13.33;;;-1.70;99.90;;;;;;5114495;28;20191;-73
2022/12/18 09:26:43;;;;;;;22.13;12.63;;;-1.70;99.90;;;;;;5114564;28;20705;-73
2022/12/18 09:29:14;;;;;;;25.17;13.87;;;-1.70;99.90;;;;;;5114487;28;20235;-72
2022/12/18 09:31:44;;;;;;;23.47;12.73;;;-1.70;99.90;;;;;;5114532;28;20747;-73
2022/12/18 09:34:12;;;;;;;19.40;11.43;;;-1.60;99.90;;;;;;5114492;28;20223;-73
2022/12/18 09:36:41;;;;;;;19.77;11.57;;;-1.60;99.90;;;;;;5114299;28;20233;-72
2022/12/18 09:39:10;;;;;;;17.43;10.67;;;-1.50;99.90;;;;;;5114470;28;20187;-73
2022/12/18 09:41:47;;;;;;;20.70;11.53;;;-1.50;99.90;;;;;;5114116;28;20259;-71
2022/12/18 09:44:22;;;;;;;17.47;11.50;;;-1.50;99.90;;;;;;5114139;28;20668;-71
2022/12/18 09:46:58;;;;;;;19.63;11.17;;;-1.40;99.90;;;;;;5114177;28;20783;-70
2022/12/18 09:49:30;;;;;;;18.60;10.53;;;-1.40;99.90;;;;;;5114081;28;20219;-71
2022/12/18 09:52:02;;;;;;;17.77;10.93;;;-1.40;99.90;;;;;;5114264;28;20265;-71
2022/12/18 09:54:36;;;;;;;20.50;11.27;;;-1.40;99.90;;;;;;5114388;28;20224;-73
2022/12/18 09:57:05;;;;;;;19.00;10.97;;;-1.30;99.90;;;;;;5113997;28;20676;-70
2022/12/18 09:59:36;;;;;;;20.53;11.53;;;-1.20;99.90;;;;;;5113810;27;20691;-71
2022/12/18 10:02:16;;;;;;;18.30;10.70;;;-1.20;99.90;;;;;;5114184;28;20218;-70
2022/12/18 10:04:48;;;;;;;15.67;10.43;;;-1.20;99.90;;;;;;5112525;28;20738;-71
2022/12/18 10:07:25;;;;;;;19.10;9.97;;;-1.10;99.90;;;;;;5113860;28;20290;-71
2022/12/18 10:10:02;;;;;;;17.47;10.03;;;-1.10;99.90;;;;;;5113730;28;20202;-71
2022/12/18 10:12:39;;;;;;;15.33;9.20;;;-1.10;99.90;;;;;;5113554;28;20552;-72
2022/12/18 10:15:15;;;;;;;16.03;9.57;;;-1.00;99.90;;;;;;5113756;27;20611;-71
2022/12/18 10:17:49;;;;;;;15.53;9.10;;;-1.00;99.90;;;;;;5113715;28;20199;-71
2022/12/18 10:20:23;;;;;;;17.93;9.30;;;-0.90;99.90;;;;;;5113573;28;20274;-71
2022/12/18 10:22:58;;;;;;;18.50;9.33;;;-0.80;99.90;;;;;;5113415;28;20207;-70
2022/12/18 10:25:32;;;;;;;13.20;9.07;;;-0.80;99.90;;;;;;5113398;28;20622;-70
2022/12/18 10:28:11;;;;;;;15.33;9.60;;;-0.70;99.90;;;;;;5113305;28;20227;-70
2022/12/18 10:30:40;;;;;;;16.13;10.00;;;-0.70;99.90;;;;;;5113496;28;20188;-70
2022/12/18 10:33:14;;;;;;;15.93;9.57;;;-0.80;99.80;;;;;;5113425;28;20183;-70
2022/12/18 10:35:44;;;;;;;18.53;9.37;;;-0.70;99.90;;;;;;5113242;28;20188;-70
2022/12/18 10:38:24;;;;;;;17.07;9.80;;;-0.70;99.90;;;;;;5113219;28;20203;-69
2022/12/18 10:40:54;;;;;;;18.43;10.50;;;-0.70;99.90;;;;;;5112744;28;20241;-70
2022/12/18 10:43:26;;;;;;;20.70;11.37;;;-0.70;99.90;;;;;;5113070;28;20195;-70
2022/12/18 10:46:14;;;;;;;24.43;11.80;;;-0.70;99.90;;;;;;5112939;28;20222;-71
2022/12/18 10:48:53;;;;;;;26.90;14.47;;;-0.70;99.90;;;;;;5112907;28;20235;-70
2022/12/18 10:51:25;;;;;;;17.73;10.27;;;-0.60;99.90;;;;;;5112899;28;20256;-70
2022/12/18 10:53:57;;;;;;;16.83;9.63;;;-0.60;99.90;;;;;;5112827;28;20290;-70
2022/12/18 10:56:28;;;;;;;17.07;10.23;;;-0.60;99.40;;;;;;5112687;28;20204;-70
2022/12/18 10:58:59;;;;;;;17.60;10.63;;;-0.60;99.60;;;;;;5112602;28;20191;-72
2022/12/18 11:01:28;;;;;;;15.63;10.20;;;-0.50;99.30;;;;;;5111452;28;20642;-71
2022/12/18 11:04:09;;;;;;;16.53;9.47;;;-0.50;98.70;;;;;;5112784;28;20800;-71
2022/12/18 11:06:55;;;;;;;17.93;10.13;;;-0.40;98.70;;;;;;5112698;28;20291;-71
2022/12/18 11:09:25;;;;;;;17.80;9.83;;;-0.40;98.50;;;;;;5112615;28;20322;-71
2022/12/18 11:11:56;;;;;;;14.90;9.20;;;-0.30;97.70;;;;;;5112200;28;20200;-71
2022/12/18 11:14:26;;;;;;;16.33;9.20;;;-0.30;95.40;;;;;;5112539;28;20219;-71
2022/12/18 11:16:56;;;;;;;20.73;9.60;;;-0.30;96.60;;;;;;5112586;28;20210;-70
2022/12/18 11:19:54;;;;;;;18.30;9.63;;;-0.30;95.60;;;;;;5112641;28;20190;-71
2022/12/18 11:22:27;;;;;;;15.03;8.73;;;-0.30;95.30;;;;;;5112572;28;20219;-73
2022/12/18 11:24:59;;;;;;;20.47;10.03;;;-0.20;95.10;;;;;;5112406;28;20204;-72
2022/12/18 11:27:53;;;;;;;21.07;11.70;;;-0.20;93.80;;;;;;5112281;28;20196;-72
2022/12/18 11:30:25;;;;;;;17.43;11.13;;;-0.10;95.40;;;;;;5112446;28;20196;-71
2022/12/18 11:33:04;;;;;;;36.20;19.73;;;0.00;94.60;;;;;;5112432;28;20199;-72
2022/12/18 11:35:46;;;;;;;19.67;11.57;;;0.00;94.30;;;;;;5112208;28;20225;-72
2022/12/18 11:38:23;;;;;;;18.40;10.80;;;0.00;93.40;;;;;;5112160;28;20214;-74
2022/12/18 11:40:57;;;;;;;19.60;10.77;;;0.10;93.00;;;;;;5111961;28;20705;-71
2022/12/18 11:43:30;;;;;;;17.00;9.77;;;0.10;92.10;;;;;;5112196;28;20206;-71
2022/12/18 11:46:03;;;;;;;16.03;9.00;;;0.20;92.30;;;;;;5112035;28;20290;-71
2022/12/18 11:48:37;;;;;;;13.43;8.37;;;0.20;92.10;;;;;;5111980;28;20208;-72
2022/12/18 11:51:14;;;;;;;19.23;9.77;;;0.20;91.30;;;;;;5112194;28;20557;-72
2022/12/18 11:53:43;;;;;;;16.00;9.07;;;0.20;90.40;;;;;;5112147;28;20207;-72
2022/12/18 11:56:30;;;;;;;13.37;9.13;;;0.20;89.00;;;;;;5112025;28;20290;-72
2022/12/18 11:59:09;;;;;;;17.47;9.67;;;0.10;88.40;;;;;;5111839;28;20235;-73
2022/12/18 12:01:51;;;;;;;13.10;8.47;;;0.10;89.50;;;;;;5112068;28;20290;-72
2022/12/18 12:04:44;;;;;;;14.27;8.63;;;0.10;89.60;;;;;;5112010;28;20311;-72
2022/12/18 12:07:26;;;;;;;14.83;8.40;;;0.10;90.00;;;;;;5111887;28;20574;-73
2022/12/18 12:10:04;;;;;;;15.93;9.57;;;0.10;89.40;;;;;;5111680;28;20223;-73
2022/12/18 12:12:47;;;;;;;17.27;10.10;;;0.10;87.60;;;;;;5112023;28;20200;-73
2022/12/18 12:15:28;;;;;;;10.33;6.70;;;0.20;89.30;;;;;;5111791;28;20199;-73
2022/12/18 12:18:05;;;;;;;15.73;8.73;;;0.10;85.30;;;;;;5111792;28;20221;-73
2022/12/18 12:20:51;;;;;;;14.80;8.23;;;0.10;86.60;;;;;;5110760;28;20223;-73
2022/12/18 12:23:33;;;;;;;15.30;8.27;;;0.20;85.50;;;;;;5113496;28;20252;-71
2022/12/18 12:26:07;;;;;;;13.37;8.10;;;0.20;85.30;;;;;;5032774;28;20209;-73
2022/12/18 12:28:55;;;;;;;13.63;8.47;;;0.10;83.50;;;;;;5032828;28;20364;-73
2022/12/18 12:31:37;;;;;;;13.63;7.43;;;0.10;84.10;;;;;;5032771;28;20710;-73
2022/12/18 12:34:15;;;;;;;11.40;7.60;;;0.10;84.00;;;;;;5032755;28;20253;-74
2022/12/18 12:36:57;;;;;;;11.23;6.77;;;0.20;83.90;;;;;;5032789;28;20309;-73
2022/12/18 12:39:34;;;;;;;12.73;7.83;;;0.20;82.40;;;;;;5032840;28;20255;-74
2022/12/18 12:44:55;;;;;;;14.97;9.00;;;0.30;84.20;;;;;;5093545;28;20202;-74
2022/12/18 12:47:28;;;;;;;12.47;8.17;;;0.30;83.20;;;;;;5115404;28;20232;-73
2022/12/18 12:49:59;;;;;;;18.80;9.30;;;0.30;81.80;;;;;;5115096;28;20249;-73
2022/12/18 12:52:36;;;;;;;15.70;8.27;;;0.40;82.00;;;;;;5115191;28;20223;-73
2022/12/18 12:55:13;;;;;;;13.43;8.27;;;0.30;81.10;;;;;;5115195;28;20665;-74
2022/12/18 12:57:47;;;;;;;13.33;7.83;;;0.30;81.00;;;;;;5115264;28;20279;-74
2022/12/18 13:00:17;;;;;;;11.60;8.00;;;0.30;81.00;;;;;;5114945;28;20230;-74
2022/12/18 13:02:51;;;;;;;12.90;8.03;;;0.30;80.80;;;;;;5115161;28;20222;-72
2022/12/18 13:05:27;;;;;;;13.20;7.77;;;0.30;80.80;;;;;;5115052;28;20672;-72